sensor_id;sensor_type;location;lat;lon;timestamp;pressure;altitude;pressure_sealevel;temperature;humidity
21869;BME280;11099;41.564;23.296;2023-07-29T00:01:11;97368.28;;;23.71;57.05
21869;BME280;11099;41.564;23.296;2023-07-29T00:03:37;97362.44;;;23.72;56.88
21869;BME280;11099;41.564;23.296;2023-07-29T00:06:03;97359.13;;;23.22;58.57
21869;BME280;11099;41.564;23.296;2023-07-29T00:08:28;97342.09;;;23.14;59.12
21869;BME280;11099;41.564;23.296;2023-07-29T00:10:54;97330.91;;;22.91;59.86
21869;BME280;11099;41.564;23.296;2023-07-29T00:13:19;97312.72;;;22.55;61.19
21869;BME280;11099;41.564;23.296;2023-07-29T00:15:45;97346.81;;;22.88;60.96
21869;BME280;11099;41.564;23.296;2023-07-29T00:18:11;97377.81;;;22.73;62.00
21869;BME280;11099;41.564;23.296;2023-07-29T00:20:36;97367.34;;;22.93;62.13
21869;BME280;11099;41.564;23.296;2023-07-29T00:23:02;97310.00;;;22.30;62.96
21869;BME280;11099;41.564;23.296;2023-07-29T00:25:28;97372.75;;;22.82;62.73
21869;BME280;11099;41.564;23.296;2023-07-29T00:27:55;97366.16;;;23.05;61.11
21869;BME280;11099;41.564;23.296;2023-07-29T00:30:21;97368.06;;;23.22;59.60
21869;BME280;11099;41.564;23.296;2023-07-29T00:32:47;97354.47;;;23.22;58.29
21869;BME280;11099;41.564;23.296;2023-07-29T00:35:12;97370.34;;;23.42;58.17
21869;BME280;11099;41.564;23.296;2023-07-29T00:37:38;97323.16;;;22.75;59.44
21869;BME280;11099;41.564;23.296;2023-07-29T00:40:12;97365.38;;;23.11;59.78
21869;BME280;11099;41.564;23.296;2023-07-29T00:42:38;97351.44;;;22.95;60.03
21869;BME280;11099;41.564;23.296;2023-07-29T00:45:04;97335.91;;;23.13;59.11
21869;BME280;11099;41.564;23.296;2023-07-29T00:47:31;97341.34;;;23.03;60.32
21869;BME280;11099;41.564;23.296;2023-07-29T00:49:56;97349.91;;;22.98;60.88
21869;BME280;11099;41.564;23.296;2023-07-29T00:52:22;97322.78;;;22.19;63.91
21869;BME280;11099;41.564;23.296;2023-07-29T00:54:47;97345.25;;;22.30;65.00
21869;BME280;11099;41.564;23.296;2023-07-29T00:57:13;97379.75;;;22.62;64.84
21869;BME280;11099;41.564;23.296;2023-07-29T00:59:40;97378.97;;;22.26;67.76
21869;BME280;11099;41.564;23.296;2023-07-29T01:02:06;97372.78;;;22.40;67.71
21869;BME280;11099;41.564;23.296;2023-07-29T01:04:32;97320.84;;;22.13;67.39
21869;BME280;11099;41.564;23.296;2023-07-29T01:12:23;97347.19;;;22.98;62.94
21869;BME280;11099;41.564;23.296;2023-07-29T01:17:58;97351.41;;;23.06;62.33
21869;BME280;11099;41.564;23.296;2023-07-29T01:20:25;97338.19;;;23.26;61.37
21869;BME280;11099;41.564;23.296;2023-07-29T01:22:51;97365.75;;;23.24;62.12
21869;BME280;11099;41.564;23.296;2023-07-29T01:25:17;97372.00;;;22.75;63.51
21869;BME280;11099;41.564;23.296;2023-07-29T01:27:47;97342.16;;;22.32;66.17
21869;BME280;11099;41.564;23.296;2023-07-29T01:30:12;97368.91;;;22.33;68.36
21869;BME280;11099;41.564;23.296;2023-07-29T01:33:02;97329.00;;;22.16;67.86
21869;BME280;11099;41.564;23.296;2023-07-29T01:35:36;97371.59;;;22.30;68.56
21869;BME280;11099;41.564;23.296;2023-07-29T01:38:09;97338.69;;;22.28;67.80
21869;BME280;11099;41.564;23.296;2023-07-29T01:40:35;97361.16;;;22.89;66.05
21869;BME280;11099;41.564;23.296;2023-07-29T01:43:01;97360.31;;;23.17;63.10
21869;BME280;11099;41.564;23.296;2023-07-29T01:45:28;97349.09;;;23.08;61.34
21869;BME280;11099;41.564;23.296;2023-07-29T01:47:56;97315.75;;;23.00;59.73
21869;BME280;11099;41.564;23.296;2023-07-29T01:50:22;97351.06;;;22.68;62.47
21869;BME280;11099;41.564;23.296;2023-07-29T01:52:47;97378.22;;;22.93;62.00
21869;BME280;11099;41.564;23.296;2023-07-29T01:55:13;97345.28;;;22.27;61.32
21869;BME280;11099;41.564;23.296;2023-07-29T01:57:38;97360.34;;;22.14;61.93
21869;BME280;11099;41.564;23.296;2023-07-29T02:00:04;97332.78;;;21.87;60.02
21869;BME280;11099;41.564;23.296;2023-07-29T02:02:30;97304.94;;;22.04;58.61
21869;BME280;11099;41.564;23.296;2023-07-29T02:04:55;97337.91;;;22.31;59.01
21869;BME280;11099;41.564;23.296;2023-07-29T02:07:21;97361.91;;;22.47;58.23
21869;BME280;11099;41.564;23.296;2023-07-29T02:09:47;97347.22;;;22.58;57.39
21869;BME280;11099;41.564;23.296;2023-07-29T02:12:12;97328.22;;;22.51;57.16
21869;BME280;11099;41.564;23.296;2023-07-29T02:14:38;97320.84;;;22.41;57.22
21869;BME280;11099;41.564;23.296;2023-07-29T02:17:03;97366.59;;;22.75;57.24
21869;BME280;11099;41.564;23.296;2023-07-29T02:19:29;97337.88;;;22.67;56.18
21869;BME280;11099;41.564;23.296;2023-07-29T02:21:54;97364.59;;;23.07;55.10
21869;BME280;11099;41.564;23.296;2023-07-29T02:24:20;97261.19;;;22.30;55.52
21869;BME280;11099;41.564;23.296;2023-07-29T02:26:45;97321.97;;;22.79;55.04
21869;BME280;11099;41.564;23.296;2023-07-29T02:29:10;97332.09;;;22.47;55.11
21869;BME280;11099;41.564;23.296;2023-07-29T02:31:36;97371.19;;;23.10;53.61
21869;BME280;11099;41.564;23.296;2023-07-29T02:34:03;97345.22;;;23.05;52.54
21869;BME280;11099;41.564;23.296;2023-07-29T02:36:28;97372.72;;;23.22;52.77
21869;BME280;11099;41.564;23.296;2023-07-29T02:38:54;97368.38;;;23.42;53.29
21869;BME280;11099;41.564;23.296;2023-07-29T02:41:19;97304.91;;;22.79;52.82
21869;BME280;11099;41.564;23.296;2023-07-29T02:43:48;97375.81;;;23.20;54.23
21869;BME280;11099;41.564;23.296;2023-07-29T02:46:14;97377.41;;;23.14;53.70
21869;BME280;11099;41.564;23.296;2023-07-29T02:48:39;97334.03;;;22.21;54.62
21869;BME280;11099;41.564;23.296;2023-07-29T02:51:05;97323.19;;;22.43;52.57
21869;BME280;11099;41.564;23.296;2023-07-29T02:53:30;97264.63;;;21.60;53.02
21869;BME280;11099;41.564;23.296;2023-07-29T02:55:56;97324.69;;;22.08;56.46
21869;BME280;11099;41.564;23.296;2023-07-29T02:58:21;97382.63;;;21.64;59.68
21869;BME280;11099;41.564;23.296;2023-07-29T03:00:47;97389.56;;;21.51;60.33
21869;BME280;11099;41.564;23.296;2023-07-29T03:03:13;97356.41;;;21.90;58.54
21869;BME280;11099;41.564;23.296;2023-07-29T03:05:39;97394.00;;;22.02;58.37
21869;BME280;11099;41.564;23.296;2023-07-29T03:08:05;97390.97;;;22.21;58.41
21869;BME280;11099;41.564;23.296;2023-07-29T03:10:30;97332.00;;;20.92;62.25
21869;BME280;11099;41.564;23.296;2023-07-29T03:12:56;97395.38;;;21.53;62.25
21869;BME280;11099;41.564;23.296;2023-07-29T03:15:24;97334.06;;;21.16;61.95
21869;BME280;11099;41.564;23.296;2023-07-29T03:17:51;97338.66;;;21.05;63.10
21869;BME280;11099;41.564;23.296;2023-07-29T03:20:16;97381.53;;;21.03;64.63
21869;BME280;11099;41.564;23.296;2023-07-29T03:22:44;97345.97;;;21.01;64.58
21869;BME280;11099;41.564;23.296;2023-07-29T03:25:10;97332.53;;;21.15;64.89
21869;BME280;11099;41.564;23.296;2023-07-29T03:27:35;97340.56;;;21.01;65.34
21869;BME280;11099;41.564;23.296;2023-07-29T03:30:06;97367.97;;;21.69;63.61
21869;BME280;11099;41.564;23.296;2023-07-29T03:32:32;97388.75;;;21.47;65.56
21869;BME280;11099;41.564;23.296;2023-07-29T03:34:58;97389.19;;;21.49;65.59
21869;BME280;11099;41.564;23.296;2023-07-29T03:37:24;97333.59;;;21.00;65.77
21869;BME280;11099;41.564;23.296;2023-07-29T03:39:49;97390.13;;;21.99;63.76
21869;BME280;11099;41.564;23.296;2023-07-29T03:42:17;97350.59;;;21.88;60.14
21869;BME280;11099;41.564;23.296;2023-07-29T03:44:42;97366.59;;;22.32;59.03
21869;BME280;11099;41.564;23.296;2023-07-29T03:47:08;97397.56;;;22.63;57.89
21869;BME280;11099;41.564;23.296;2023-07-29T03:49:33;97363.50;;;22.37;58.63
21869;BME280;11099;41.564;23.296;2023-07-29T03:51:59;97368.41;;;21.96;57.30
21869;BME280;11099;41.564;23.296;2023-07-29T03:54:24;97358.44;;;22.14;57.14
21869;BME280;11099;41.564;23.296;2023-07-29T03:56:50;97278.94;;;21.64;58.69
21869;BME280;11099;41.564;23.296;2023-07-29T03:59:15;97400.53;;;21.90;62.87
21869;BME280;11099;41.564;23.296;2023-07-29T04:01:41;97383.16;;;22.02;60.39
21869;BME280;11099;41.564;23.296;2023-07-29T04:04:06;97360.75;;;22.12;57.30
21869;BME280;11099;41.564;23.296;2023-07-29T04:06:32;97399.16;;;22.93;56.84
21869;BME280;11099;41.564;23.296;2023-07-29T04:08:58;97397.78;;;23.76;52.57
21869;BME280;11099;41.564;23.296;2023-07-29T04:11:23;97363.81;;;24.05;50.98
21869;BME280;11099;41.564;23.296;2023-07-29T04:13:49;97361.25;;;23.80;50.22
21869;BME280;11099;41.564;23.296;2023-07-29T04:16:15;97366.34;;;24.41;47.65
21869;BME280;11099;41.564;23.296;2023-07-29T04:18:42;97343.72;;;24.48;47.48
21869;BME280;11099;41.564;23.296;2023-07-29T04:21:07;97370.97;;;25.30;46.70
21869;BME280;11099;41.564;23.296;2023-07-29T04:23:33;97369.94;;;26.12;42.88
21869;BME280;11099;41.564;23.296;2023-07-29T04:25:58;97393.63;;;27.96;39.63
21869;BME280;11099;41.564;23.296;2023-07-29T04:28:24;97402.47;;;28.03;38.25
21869;BME280;11099;41.564;23.296;2023-07-29T04:30:49;97369.75;;;27.80;37.50
21869;BME280;11099;41.564;23.296;2023-07-29T04:33:15;97381.34;;;26.04;40.93
21869;BME280;11099;41.564;23.296;2023-07-29T04:35:40;97265.34;;;24.73;42.37
21869;BME280;11099;41.564;23.296;2023-07-29T04:38:06;97392.13;;;25.15;43.36
21869;BME280;11099;41.564;23.296;2023-07-29T04:40:34;97387.94;;;25.79;41.82
21869;BME280;11099;41.564;23.296;2023-07-29T04:43:00;97339.47;;;25.29;42.02
21869;BME280;11099;41.564;23.296;2023-07-29T04:45:30;97406.06;;;27.21;39.52
21869;BME280;11099;41.564;23.296;2023-07-29T04:47:56;97419.19;;;27.89;37.73
21869;BME280;11099;41.564;23.296;2023-07-29T04:50:21;97402.97;;;27.98;36.86
21869;BME280;11099;41.564;23.296;2023-07-29T04:52:47;97391.34;;;27.15;38.03
21869;BME280;11099;41.564;23.296;2023-07-29T04:55:12;97361.13;;;26.78;38.40
21869;BME280;11099;41.564;23.296;2023-07-29T04:57:38;97414.16;;;28.89;35.97
21869;BME280;11099;41.564;23.296;2023-07-29T05:00:04;97423.59;;;29.91;34.03
21869;BME280;11099;41.564;23.296;2023-07-29T05:02:29;97386.63;;;29.83;33.29
21869;BME280;11099;41.564;23.296;2023-07-29T05:04:55;97396.22;;;30.17;33.03
21869;BME280;11099;41.564;23.296;2023-07-29T05:07:20;97429.00;;;29.95;33.27
21869;BME280;11099;41.564;23.296;2023-07-29T05:09:47;97430.22;;;30.07;33.47
21869;BME280;11099;41.564;23.296;2023-07-29T05:12:13;97432.09;;;29.39;34.67
21869;BME280;11099;41.564;23.296;2023-07-29T05:14:38;97438.25;;;29.14;35.08
21869;BME280;11099;41.564;23.296;2023-07-29T05:17:04;97407.09;;;28.75;35.84
21869;BME280;11099;41.564;23.296;2023-07-29T05:19:30;97396.72;;;28.50;36.07
21869;BME280;11099;41.564;23.296;2023-07-29T05:21:56;97424.38;;;28.72;35.75
21869;BME280;11099;41.564;23.296;2023-07-29T05:24:22;97386.25;;;28.29;36.50
21869;BME280;11099;41.564;23.296;2023-07-29T05:26:48;97460.81;;;28.37;36.97
21869;BME280;11099;41.564;23.296;2023-07-29T05:29:14;97443.44;;;28.07;37.41
21869;BME280;11099;41.564;23.296;2023-07-29T05:31:39;97350.63;;;27.60;37.34
21869;BME280;11099;41.564;23.296;2023-07-29T05:34:05;97346.47;;;27.92;37.14
21869;BME280;11099;41.564;23.296;2023-07-29T05:36:31;97431.50;;;28.70;36.56
21869;BME280;11099;41.564;23.296;2023-07-29T05:38:56;97435.84;;;29.00;36.56
21869;BME280;11099;41.564;23.296;2023-07-29T05:41:22;97472.41;;;29.26;35.99
21869;BME280;11099;41.564;23.296;2023-07-29T05:43:47;97399.47;;;28.83;36.31
21869;BME280;11099;41.564;23.296;2023-07-29T05:46:13;97405.03;;;29.41;36.29
21869;BME280;11099;41.564;23.296;2023-07-29T05:48:38;97430.25;;;29.49;36.29
21869;BME280;11099;41.564;23.296;2023-07-29T05:51:04;97425.13;;;29.51;36.35
21869;BME280;11099;41.564;23.296;2023-07-29T05:53:31;97430.50;;;29.25;36.53
21869;BME280;11099;41.564;23.296;2023-07-29T05:55:56;97434.28;;;29.15;36.44
21869;BME280;11099;41.564;23.296;2023-07-29T05:58:22;97407.59;;;29.03;36.00
21869;BME280;11099;41.564;23.296;2023-07-29T06:03:31;97446.00;;;29.90;35.25
21869;BME280;11099;41.564;23.296;2023-07-29T06:05:57;97409.09;;;29.20;36.07
21869;BME280;11099;41.564;23.296;2023-07-29T06:08:22;97413.69;;;28.94;36.26
21869;BME280;11099;41.564;23.296;2023-07-29T06:10:48;97429.41;;;29.06;36.30
21869;BME280;11099;41.564;23.296;2023-07-29T06:13:13;97455.22;;;29.54;36.45
21869;BME280;11099;41.564;23.296;2023-07-29T06:15:38;97456.81;;;29.68;35.90
21869;BME280;11099;41.564;23.296;2023-07-29T06:33:02;97432.25;;;29.77;36.13
21869;BME280;11099;41.564;23.296;2023-07-29T06:35:28;97429.75;;;29.54;35.88
21869;BME280;11099;41.564;23.296;2023-07-29T06:37:54;97455.28;;;29.67;35.89
21869;BME280;11099;41.564;23.296;2023-07-29T06:40:20;97396.91;;;29.50;35.52
21869;BME280;11099;41.564;23.296;2023-07-29T06:42:45;97442.72;;;29.95;35.09
21869;BME280;11099;41.564;23.296;2023-07-29T06:45:11;97438.53;;;29.90;34.96
21869;BME280;11099;41.564;23.296;2023-07-29T06:47:37;97416.22;;;29.76;34.45
21869;BME280;11099;41.564;23.296;2023-07-29T06:50:02;97395.50;;;29.87;33.87
21869;BME280;11099;41.564;23.296;2023-07-29T06:52:28;97342.63;;;29.16;34.51
21869;BME280;11099;41.564;23.296;2023-07-29T06:54:53;97425.91;;;29.93;33.93
21869;BME280;11099;41.564;23.296;2023-07-29T06:57:19;97431.38;;;29.22;35.33
21869;BME280;11099;41.564;23.296;2023-07-29T06:59:44;97405.56;;;29.36;35.07
21869;BME280;11099;41.564;23.296;2023-07-29T07:02:10;97399.00;;;29.46;35.48
21869;BME280;11099;41.564;23.296;2023-07-29T07:04:35;97435.16;;;29.57;35.08
21869;BME280;11099;41.564;23.296;2023-07-29T07:07:01;97401.44;;;29.99;33.70
21869;BME280;11099;41.564;23.296;2023-07-29T07:09:27;97388.69;;;29.50;35.44
21869;BME280;11099;41.564;23.296;2023-07-29T07:11:52;97406.59;;;30.09;34.07
21869;BME280;11099;41.564;23.296;2023-07-29T07:14:18;97361.03;;;30.50;33.31
21869;BME280;11099;41.564;23.296;2023-07-29T07:16:44;97414.84;;;29.97;34.25
21869;BME280;11099;41.564;23.296;2023-07-29T07:19:10;97416.94;;;30.43;34.55
21869;BME280;11099;41.564;23.296;2023-07-29T07:21:36;97366.88;;;30.39;33.10
21869;BME280;11099;41.564;23.296;2023-07-29T07:24:01;97415.44;;;30.17;33.57
21869;BME280;11099;41.564;23.296;2023-07-29T07:26:27;97382.75;;;29.93;33.56
21869;BME280;11099;41.564;23.296;2023-07-29T07:28:53;97315.78;;;29.53;34.33
21869;BME280;11099;41.564;23.296;2023-07-29T07:31:18;97292.69;;;29.50;34.46
21869;BME280;11099;41.564;23.296;2023-07-29T07:33:44;97329.00;;;30.22;33.70
21869;BME280;11099;41.564;23.296;2023-07-29T07:36:09;97348.63;;;30.07;33.78
21869;BME280;11099;41.564;23.296;2023-07-29T07:38:35;97351.94;;;30.02;34.04
21869;BME280;11099;41.564;23.296;2023-07-29T07:41:01;97366.41;;;30.54;33.86
21869;BME280;11099;41.564;23.296;2023-07-29T07:43:27;97394.00;;;30.50;34.06
21869;BME280;11099;41.564;23.296;2023-07-29T07:46:00;97346.28;;;30.69;33.61
21869;BME280;11099;41.564;23.296;2023-07-29T07:48:26;97365.16;;;30.80;33.22
21869;BME280;11099;41.564;23.296;2023-07-29T07:50:52;97388.00;;;31.25;32.62
21869;BME280;11099;41.564;23.296;2023-07-29T07:53:17;97366.22;;;30.35;33.27
21869;BME280;11099;41.564;23.296;2023-07-29T07:55:43;97271.06;;;28.85;34.50
21869;BME280;11099;41.564;23.296;2023-07-29T07:58:08;97279.16;;;28.59;35.63
21869;BME280;11099;41.564;23.296;2023-07-29T08:00:36;97386.84;;;29.89;34.60
21869;BME280;11099;41.564;23.296;2023-07-29T08:03:04;97395.09;;;30.02;34.79
21869;BME280;11099;41.564;23.296;2023-07-29T08:05:32;97367.09;;;30.45;33.77
21869;BME280;11099;41.564;23.296;2023-07-29T08:07:59;97383.97;;;30.82;33.94
21869;BME280;11099;41.564;23.296;2023-07-29T08:10:27;97309.88;;;30.31;33.65
21869;BME280;11099;41.564;23.296;2023-07-29T08:12:55;97334.88;;;30.58;33.74
21869;BME280;11099;41.564;23.296;2023-07-29T08:15:23;97343.06;;;30.24;34.14
21869;BME280;11099;41.564;23.296;2023-07-29T08:18:02;97352.34;;;29.75;34.87
21869;BME280;11099;41.564;23.296;2023-07-29T08:20:30;97389.06;;;30.32;34.91
21869;BME280;11099;41.564;23.296;2023-07-29T08:22:59;97362.13;;;30.53;34.25
21869;BME280;11099;41.564;23.296;2023-07-29T08:25:29;97380.09;;;30.92;34.22
21869;BME280;11099;41.564;23.296;2023-07-29T08:27:56;97369.88;;;31.14;33.59
21869;BME280;11099;41.564;23.296;2023-07-29T08:30:22;97341.25;;;31.25;33.07
21869;BME280;11099;41.564;23.296;2023-07-29T08:32:47;97300.06;;;31.12;32.69
21869;BME280;11099;41.564;23.296;2023-07-29T08:35:13;97355.38;;;31.58;32.61
21869;BME280;11099;41.564;23.296;2023-07-29T08:37:38;97337.22;;;30.82;33.73
21869;BME280;11099;41.564;23.296;2023-07-29T08:40:04;97368.59;;;31.06;33.08
21869;BME280;11099;41.564;23.296;2023-07-29T08:42:32;97308.06;;;30.62;33.16
21869;BME280;11099;41.564;23.296;2023-07-29T08:45:04;97332.19;;;31.37;32.24
21869;BME280;11099;41.564;23.296;2023-07-29T08:47:31;97348.59;;;31.71;32.32
21869;BME280;11099;41.564;23.296;2023-07-29T08:49:57;97374.78;;;32.07;32.06
21869;BME280;11099;41.564;23.296;2023-07-29T08:52:25;97358.31;;;32.16;31.49
21869;BME280;11099;41.564;23.296;2023-07-29T08:54:51;97356.31;;;32.17;31.63
21869;BME280;11099;41.564;23.296;2023-07-29T08:57:19;97353.19;;;32.37;31.53
21869;BME280;11099;41.564;23.296;2023-07-29T08:59:52;97354.50;;;32.82;30.15
21869;BME280;11099;41.564;23.296;2023-07-29T09:02:21;97304.19;;;32.32;31.09
21869;BME280;11099;41.564;23.296;2023-07-29T09:04:47;97322.00;;;32.49;30.61
21869;BME280;11099;41.564;23.296;2023-07-29T09:07:13;97352.63;;;32.78;30.79
21869;BME280;11099;41.564;23.296;2023-07-29T09:09:39;97272.69;;;32.42;29.75
21869;BME280;11099;41.564;23.296;2023-07-29T09:12:05;97279.41;;;32.41;30.75
21869;BME280;11099;41.564;23.296;2023-07-29T09:14:33;97350.03;;;32.84;29.73
21869;BME280;11099;41.564;23.296;2023-07-29T09:17:00;97323.44;;;31.82;30.84
21869;BME280;11099;41.564;23.296;2023-07-29T09:19:26;97322.53;;;32.25;31.01
21869;BME280;11099;41.564;23.296;2023-07-29T09:21:52;97325.44;;;32.31;30.61
21869;BME280;11099;41.564;23.296;2023-07-29T09:24:17;97327.81;;;32.60;30.66
21869;BME280;11099;41.564;23.296;2023-07-29T09:26:49;97306.47;;;32.33;30.87
21869;BME280;11099;41.564;23.296;2023-07-29T09:29:15;97339.19;;;33.17;29.88
21869;BME280;11099;41.564;23.296;2023-07-29T09:31:41;97310.50;;;32.50;30.59
21869;BME280;11099;41.564;23.296;2023-07-29T09:34:06;97334.25;;;32.85;30.23
21869;BME280;11099;41.564;23.296;2023-07-29T09:36:33;97310.81;;;32.43;30.38
21869;BME280;11099;41.564;23.296;2023-07-29T09:38:58;97312.84;;;32.70;30.23
21869;BME280;11099;41.564;23.296;2023-07-29T09:41:25;97237.59;;;32.33;29.75
21869;BME280;11099;41.564;23.296;2023-07-29T09:44:02;97294.41;;;32.40;29.99
21869;BME280;11099;41.564;23.296;2023-07-29T09:46:35;97277.75;;;32.80;30.06
21869;BME280;11099;41.564;23.296;2023-07-29T09:49:03;97275.63;;;33.02;29.62
21869;BME280;11099;41.564;23.296;2023-07-29T09:51:28;97313.75;;;32.76;29.27
21869;BME280;11099;41.564;23.296;2023-07-29T09:53:55;97277.44;;;32.69;29.98
21869;BME280;11099;41.564;23.296;2023-07-29T09:56:25;97316.22;;;33.11;29.12
21869;BME280;11099;41.564;23.296;2023-07-29T09:58:51;97281.75;;;33.07;28.83
21869;BME280;11099;41.564;23.296;2023-07-29T10:01:17;97296.75;;;33.15;29.55
21869;BME280;11099;41.564;23.296;2023-07-29T10:03:44;97302.09;;;33.18;29.50
21869;BME280;11099;41.564;23.296;2023-07-29T10:06:10;97249.88;;;33.06;29.82
21869;BME280;11099;41.564;23.296;2023-07-29T10:08:36;97298.66;;;33.60;30.02
21869;BME280;11099;41.564;23.296;2023-07-29T10:11:09;97249.06;;;33.33;29.65
21869;BME280;11099;41.564;23.296;2023-07-29T10:13:35;97284.84;;;33.69;28.75
21869;BME280;11099;41.564;23.296;2023-07-29T10:16:00;97266.56;;;33.72;29.16
21869;BME280;11099;41.564;23.296;2023-07-29T10:18:30;97264.53;;;33.81;28.72
21869;BME280;11099;41.564;23.296;2023-07-29T10:20:58;97268.81;;;34.16;28.00
21869;BME280;11099;41.564;23.296;2023-07-29T10:23:25;97246.25;;;33.93;27.95
21869;BME280;11099;41.564;23.296;2023-07-29T10:26:10;97221.94;;;33.22;28.40
21869;BME280;11099;41.564;23.296;2023-07-29T10:28:41;97282.78;;;33.79;28.70
21869;BME280;11099;41.564;23.296;2023-07-29T10:31:11;97271.25;;;33.38;28.05
21869;BME280;11099;41.564;23.296;2023-07-29T10:33:38;97209.59;;;32.99;27.96
21869;BME280;11099;41.564;23.296;2023-07-29T10:36:05;97267.59;;;33.83;27.93
21869;BME280;11099;41.564;23.296;2023-07-29T10:38:30;97169.16;;;33.38;27.96
21869;BME280;11099;41.564;23.296;2023-07-29T10:40:57;97240.28;;;33.86;27.69
21869;BME280;11099;41.564;23.296;2023-07-29T10:45:50;97217.31;;;33.79;26.44
21869;BME280;11099;41.564;23.296;2023-07-29T10:51:24;97252.41;;;33.37;27.50
21869;BME280;11099;41.564;23.296;2023-07-29T10:54:10;97252.53;;;33.94;27.39
21869;BME280;11099;41.564;23.296;2023-07-29T10:56:41;97247.19;;;34.14;27.19
21869;BME280;11099;41.564;23.296;2023-07-29T11:01:56;97245.94;;;34.39;27.68
21869;BME280;11099;41.564;23.296;2023-07-29T11:04:26;97220.31;;;34.39;26.71
21869;BME280;11099;41.564;23.296;2023-07-29T11:07:19;97232.34;;;34.74;26.62
21869;BME280;11099;41.564;23.296;2023-07-29T11:12:44;97218.09;;;34.67;26.22
21869;BME280;11099;41.564;23.296;2023-07-29T11:17:56;97210.19;;;34.59;25.86
21869;BME280;11099;41.564;23.296;2023-07-29T11:20:25;97180.94;;;34.53;26.15
21869;BME280;11099;41.564;23.296;2023-07-29T11:22:53;97220.72;;;34.85;25.47
21869;BME280;11099;41.564;23.296;2023-07-29T11:25:22;97221.97;;;34.84;25.85
21869;BME280;11099;41.564;23.296;2023-07-29T11:27:49;97143.13;;;34.35;26.18
21869;BME280;11099;41.564;23.296;2023-07-29T11:30:16;97203.91;;;34.89;26.20
21869;BME280;11099;41.564;23.296;2023-07-29T11:32:43;97205.53;;;34.51;25.73
21869;BME280;11099;41.564;23.296;2023-07-29T11:35:14;97147.91;;;33.96;25.69
21869;BME280;11099;41.564;23.296;2023-07-29T11:37:41;97161.75;;;34.11;26.14
21869;BME280;11099;41.564;23.296;2023-07-29T11:40:07;97180.78;;;34.08;25.72
21869;BME280;11099;41.564;23.296;2023-07-29T11:45:21;97184.22;;;34.42;26.80
21869;BME280;11099;41.564;23.296;2023-07-29T11:47:47;97158.34;;;34.16;26.69
21869;BME280;11099;41.564;23.296;2023-07-29T11:50:14;97161.13;;;34.30;25.59
21869;BME280;11099;41.564;23.296;2023-07-29T11:52:41;97169.22;;;34.19;25.14
21869;BME280;11099;41.564;23.296;2023-07-29T11:55:07;97179.94;;;34.41;26.02
21869;BME280;11099;41.564;23.296;2023-07-29T11:57:35;97179.41;;;34.52;25.61
21869;BME280;11099;41.564;23.296;2023-07-29T12:00:03;97133.84;;;34.08;25.40
21869;BME280;11099;41.564;23.296;2023-07-29T12:02:29;97170.97;;;34.07;26.16
21869;BME280;11099;41.564;23.296;2023-07-29T12:04:56;97143.75;;;34.15;25.28
21869;BME280;11099;41.564;23.296;2023-07-29T12:07:22;97131.34;;;34.11;25.57
21869;BME280;11099;41.564;23.296;2023-07-29T12:10:02;97114.41;;;34.03;26.09
21869;BME280;11099;41.564;23.296;2023-07-29T12:12:29;97117.50;;;34.34;25.56
21869;BME280;11099;41.564;23.296;2023-07-29T12:14:55;97107.00;;;34.39;25.77
21869;BME280;11099;41.564;23.296;2023-07-29T12:17:20;97087.06;;;34.05;25.23
21869;BME280;11099;41.564;23.296;2023-07-29T12:19:46;97120.44;;;34.31;25.39
21869;BME280;11099;41.564;23.296;2023-07-29T12:22:12;97119.13;;;34.41;25.61
21869;BME280;11099;41.564;23.296;2023-07-29T12:24:39;97080.88;;;34.10;25.59
21869;BME280;11099;41.564;23.296;2023-07-29T12:27:05;97107.19;;;34.20;25.42
21869;BME280;11099;41.564;23.296;2023-07-29T12:29:31;97122.31;;;34.49;25.13
21869;BME280;11099;41.564;23.296;2023-07-29T12:31:58;97132.31;;;34.61;25.63
21869;BME280;11099;41.564;23.296;2023-07-29T12:34:26;97093.16;;;34.48;25.73
21869;BME280;11099;41.564;23.296;2023-07-29T12:36:54;97101.97;;;34.37;26.33
21869;BME280;11099;41.564;23.296;2023-07-29T12:39:27;97134.50;;;34.72;26.40
21869;BME280;11099;41.564;23.296;2023-07-29T12:41:55;97079.97;;;34.43;26.65
21869;BME280;11099;41.564;23.296;2023-07-29T12:44:22;97113.81;;;34.82;26.47
21869;BME280;11099;41.564;23.296;2023-07-29T12:46:48;97113.94;;;34.73;25.87
21869;BME280;11099;41.564;23.296;2023-07-29T12:49:14;97082.09;;;34.48;26.92
21869;BME280;11099;41.564;23.296;2023-07-29T12:51:39;97021.94;;;34.43;25.81
21869;BME280;11099;41.564;23.296;2023-07-29T12:54:05;97064.63;;;34.42;25.71
21869;BME280;11099;41.564;23.296;2023-07-29T12:56:31;97011.13;;;33.86;26.60
21869;BME280;11099;41.564;23.296;2023-07-29T12:58:58;97134.53;;;35.01;25.88
21869;BME280;11099;41.564;23.296;2023-07-29T13:01:24;97080.81;;;34.93;25.49
21869;BME280;11099;41.564;23.296;2023-07-29T13:03:50;97106.47;;;35.08;25.64
21869;BME280;11099;41.564;23.296;2023-07-29T13:06:16;97097.75;;;34.95;25.84
21869;BME280;11099;41.564;23.296;2023-07-29T13:08:42;97103.25;;;34.80;25.98
21869;BME280;11099;41.564;23.296;2023-07-29T13:11:08;97044.69;;;33.69;27.26
21869;BME280;11099;41.564;23.296;2023-07-29T13:13:34;97024.84;;;33.32;27.66
21869;BME280;11099;41.564;23.296;2023-07-29T13:15:59;97101.47;;;34.09;28.03
21869;BME280;11099;41.564;23.296;2023-07-29T13:18:25;97128.47;;;34.29;27.68
21869;BME280;11099;41.564;23.296;2023-07-29T13:20:51;97066.06;;;33.60;27.68
21869;BME280;11099;41.564;23.296;2023-07-29T13:23:16;97074.69;;;34.15;27.76
21869;BME280;11099;41.564;23.296;2023-07-29T13:25:42;97119.06;;;34.50;27.99
21869;BME280;11099;41.564;23.296;2023-07-29T13:28:09;97108.41;;;34.58;27.27
21869;BME280;11099;41.564;23.296;2023-07-29T13:30:35;97101.72;;;34.65;26.86